Aviation Digital Data Service (ADDS)

Output produced by METARs form (1507 UTC 20 March 2019)
found at http://www.aviationweather.gov/metar/data/
 
METAR text: ZSNB 201500Z VRB01MPS 5000 TSRA BR SCT033CB 20/19 Q1009 BECMG TL1600 -SHRA
Conditions at: ZSNB (NINGBO/LISHE , CN) observed 1500 UTC 20 March 2019
Temperature: 20.0°C (68°F)
Dewpoint: 19.0°C (66°F) [RH = 94%]
Pressure (altimeter): 29.79 inches Hg (1009.0 mb)
Winds: variable direction winds at 2 MPH (2 knots; 1.0 m/s)
Visibility: 3 miles ( 5 km)
Ceiling: at least 12,000 feet AGL
Clouds: scattered clouds at 3300 feet AGL
Weather: TSRA BR  (rain associated with thunderstorm(s), mist)

METAR text: ZSNB 201400Z 35002MPS 310V050 7000 SHRA SCT033CB 21/18 Q1009 BECMG TL1430 -SHRA
Conditions at: ZSNB (NINGBO/LISHE , CN) observed 1400 UTC 20 March 2019
Temperature: 21.0°C (70°F)
Dewpoint: 18.0°C (64°F) [RH = 83%]
Pressure (altimeter): 29.79 inches Hg (1009.0 mb)
Winds: from the N (350 degrees) at 5 MPH (4 knots; 2.1 m/s)
Visibility: 4 miles ( 7 km)
Ceiling: at least 12,000 feet AGL
Clouds: scattered clouds at 3300 feet AGL
Weather: SHRA  (rain showers)

METAR text: ZSNB 201300Z 36002MPS 330V050 CAVOK 22/18 Q1007 BECMG TL1430 SHRA
Conditions at: ZSNB (NINGBO/LISHE , CN) observed 1300 UTC 20 March 2019
Temperature: 22.0°C (72°F)
Dewpoint: 18.0°C (64°F) [RH = 78%]
Pressure (altimeter): 29.73 inches Hg (1007.0 mb)
Winds: from the N (360 degrees) at 5 MPH (4 knots; 2.1 m/s)
Visibility: 6 or more miles (10+ km)
Ceiling: ceiling and visibility are OK
Clouds: unknown
Weather: no significant weather observed at this time

METAR text: ZSNB 201200Z 19003MPS CAVOK 22/17 Q1005 BECMG TL1330 36005MPS
Conditions at: ZSNB (NINGBO/LISHE , CN) observed 1200 UTC 20 March 2019
Temperature: 22.0°C (72°F)
Dewpoint: 17.0°C (63°F) [RH = 73%]
Pressure (altimeter): 29.68 inches Hg (1005.0 mb)
Winds: from the S (190 degrees) at 7 MPH (6 knots; 3.1 m/s)
Visibility: 6 or more miles (10+ km)
Ceiling: ceiling and visibility are OK
Clouds: unknown
Weather: no significant weather observed at this time

METAR text: ZSNB 201100Z 18003MPS 150V210 CAVOK 23/18 Q1004 NOSIG
Conditions at: ZSNB (NINGBO/LISHE , CN) observed 1100 UTC 20 March 2019
Temperature: 23.0°C (73°F)
Dewpoint: 18.0°C (64°F) [RH = 73%]
Pressure (altimeter): 29.65 inches Hg (1004.0 mb)
Winds: from the S (180 degrees) at 7 MPH (6 knots; 3.1 m/s)
Visibility: 6 or more miles (10+ km)
Ceiling: ceiling and visibility are OK
Clouds: unknown
Weather: no significant weather observed at this time

METAR text: ZSNB 201000Z 13002MPS 070V170 9999 FEW033 24/18 Q1003 BECMG TL1150 33006MPS
Conditions at: ZSNB (NINGBO/LISHE , CN) observed 1000 UTC 20 March 2019
Temperature: 24.0°C (75°F)
Dewpoint: 18.0°C (64°F) [RH = 69%]
Pressure (altimeter): 29.62 inches Hg (1003.0 mb)
Winds: from the SE (130 degrees) at 5 MPH (4 knots; 2.1 m/s)
Visibility: 6 or more miles (10+ km)
Ceiling: at least 12,000 feet AGL
Clouds: few clouds at 3300 feet AGL
Weather: no significant weather observed at this time

METAR text: ZSNB 200900Z 16005MPS CAVOK 26/18 Q1002 NOSIG
Conditions at: ZSNB (NINGBO/LISHE , CN) observed 0900 UTC 20 March 2019
Temperature: 26.0°C (79°F)
Dewpoint: 18.0°C (64°F) [RH = 61%]
Pressure (altimeter): 29.59 inches Hg (1002.0 mb)
Winds: from the SSE (160 degrees) at 12 MPH (10 knots; 5.1 m/s)
Visibility: 6 or more miles (10+ km)
Ceiling: ceiling and visibility are OK
Clouds: unknown
Weather: no significant weather observed at this time

METAR text: ZSNB 200800Z 17006MPS 9999 FEW033 26/18 Q1002 NOSIG
Conditions at: ZSNB (NINGBO/LISHE , CN) observed 0800 UTC 20 March 2019
Temperature: 26.0°C (79°F)
Dewpoint: 18.0°C (64°F) [RH = 61%]
Pressure (altimeter): 29.59 inches Hg (1002.0 mb)
Winds: from the S (170 degrees) at 14 MPH (12 knots; 6.2 m/s)
Visibility: 6 or more miles (10+ km)
Ceiling: at least 12,000 feet AGL
Clouds: few clouds at 3300 feet AGL
Weather: no significant weather observed at this time

METAR text: ZSNB 200700Z 17007MPS 9999 FEW033 26/17 Q1002 NOSIG
Conditions at: ZSNB (NINGBO/LISHE , CN) observed 0700 UTC 20 March 2019
Temperature: 26.0°C (79°F)
Dewpoint: 17.0°C (63°F) [RH = 58%]
Pressure (altimeter): 29.59 inches Hg (1002.0 mb)
Winds: from the S (170 degrees) at 16 MPH (14 knots; 7.2 m/s)
Visibility: 6 or more miles (10+ km)
Ceiling: at least 12,000 feet AGL
Clouds: few clouds at 3300 feet AGL
Weather: no significant weather observed at this time

METAR text: ZSNB 200600Z 17008MPS 9999 FEW033 26/17 Q1003 NOSIG
Conditions at: ZSNB (NINGBO/LISHE , CN) observed 0600 UTC 20 March 2019
Temperature: 26.0°C (79°F)
Dewpoint: 17.0°C (63°F) [RH = 58%]
Pressure (altimeter): 29.62 inches Hg (1003.0 mb)
Winds: from the S (170 degrees) at 18 MPH (16 knots; 8.2 m/s)
Visibility: 6 or more miles (10+ km)
Ceiling: at least 12,000 feet AGL
Clouds: few clouds at 3300 feet AGL
Weather: no significant weather observed at this time

METAR text: ZSNB 200500Z 16011MPS CAVOK 25/17 Q1004 NOSIG
Conditions at: ZSNB (NINGBO/LISHE , CN) observed 0500 UTC 20 March 2019
Temperature: 25.0°C (77°F)
Dewpoint: 17.0°C (63°F) [RH = 61%]
Pressure (altimeter): 29.65 inches Hg (1004.0 mb)
Winds: from the SSE (160 degrees) at 24 MPH (21 knots; 10.8 m/s)
Visibility: 6 or more miles (10+ km)
Ceiling: ceiling and visibility are OK
Clouds: unknown
Weather: no significant weather observed at this time

METAR text: ZSNB 200400Z 16009MPS CAVOK 25/17 Q1005 NOSIG
Conditions at: ZSNB (NINGBO/LISHE , CN) observed 0400 UTC 20 March 2019
Temperature: 25.0°C (77°F)
Dewpoint: 17.0°C (63°F) [RH = 61%]
Pressure (altimeter): 29.68 inches Hg (1005.0 mb)
Winds: from the SSE (160 degrees) at 20 MPH (17 knots; 8.7 m/s)
Visibility: 6 or more miles (10+ km)
Ceiling: ceiling and visibility are OK
Clouds: unknown
Weather: no significant weather observed at this time

METAR text: ZSNB 200300Z 17012MPS CAVOK 23/16 Q1006 NOSIG
Conditions at: ZSNB (NINGBO/LISHE , CN) observed 0300 UTC 20 March 2019
Temperature: 23.0°C (73°F)
Dewpoint: 16.0°C (61°F) [RH = 65%]
Pressure (altimeter): 29.70 inches Hg (1006.0 mb)
Winds: from the S (170 degrees) at 26 MPH (23 knots; 11.8 m/s)
Visibility: 6 or more miles (10+ km)
Ceiling: ceiling and visibility are OK
Clouds: unknown
Weather: no significant weather observed at this time

METAR text: ZSNB 200200Z 18008G13MPS CAVOK 20/14 Q1008 NOSIG
Conditions at: ZSNB (NINGBO/LISHE , CN) observed 0200 UTC 20 March 2019
Temperature: 20.0°C (68°F)
Dewpoint: 14.0°C (57°F) [RH = 68%]
Pressure (altimeter): 29.76 inches Hg (1008.0 mb)
Winds: from the S (180 degrees) at 18 MPH (16 knots; 8.2 m/s)
gusting to 29 MPH (25 knots; 12.9 m/s)
Visibility: 6 or more miles (10+ km)
Ceiling: ceiling and visibility are OK
Clouds: unknown
Weather: no significant weather observed at this time

METAR text: ZSNB 200100Z 16008MPS CAVOK 17/13 Q1008 NOSIG
Conditions at: ZSNB (NINGBO/LISHE , CN) observed 0100 UTC 20 March 2019
Temperature: 17.0°C (63°F)
Dewpoint: 13.0°C (55°F) [RH = 77%]
Pressure (altimeter): 29.76 inches Hg (1008.0 mb)
Winds: from the SSE (160 degrees) at 18 MPH (16 knots; 8.2 m/s)
Visibility: 6 or more miles (10+ km)
Ceiling: ceiling and visibility are OK
Clouds: unknown
Weather: no significant weather observed at this time

METAR text: ZSNB 200000Z 16006MPS CAVOK 17/13 Q1010 NOSIG
Conditions at: ZSNB (NINGBO/LISHE , CN) observed 0000 UTC 20 March 2019
Temperature: 17.0°C (63°F)
Dewpoint: 13.0°C (55°F) [RH = 77%]
Pressure (altimeter): 29.82 inches Hg (1010.0 mb)
Winds: from the SSE (160 degrees) at 14 MPH (12 knots; 6.2 m/s)
Visibility: 6 or more miles (10+ km)
Ceiling: ceiling and visibility are OK
Clouds: unknown
Weather: no significant weather observed at this time

METAR text: ZSNB 192300Z 17002MPS 150V230 CAVOK 15/12 Q1010 NOSIG
Conditions at: ZSNB (NINGBO/LISHE , CN) observed 2300 UTC 19 March 2019
Temperature: 15.0°C (59°F)
Dewpoint: 12.0°C (54°F) [RH = 82%]
Pressure (altimeter): 29.82 inches Hg (1010.0 mb)
Winds: from the S (170 degrees) at 5 MPH (4 knots; 2.1 m/s)
Visibility: 6 or more miles (10+ km)
Ceiling: ceiling and visibility are OK
Clouds: unknown
Weather: no significant weather observed at this time

METAR text: ZSNB 192200Z 20007MPS CAVOK 14/11 Q1010 NOSIG
Conditions at: ZSNB (NINGBO/LISHE , CN) observed 2200 UTC 19 March 2019
Temperature: 14.0°C (57°F)
Dewpoint: 11.0°C (52°F) [RH = 82%]
Pressure (altimeter): 29.82 inches Hg (1010.0 mb)
Winds: from the SSW (200 degrees) at 16 MPH (14 knots; 7.2 m/s)
Visibility: 6 or more miles (10+ km)
Ceiling: ceiling and visibility are OK
Clouds: unknown
Weather: no significant weather observed at this time

METAR text: ZSNB 192100Z 20007MPS CAVOK 14/11 Q1011 NOSIG
Conditions at: ZSNB (NINGBO/LISHE , CN) observed 2100 UTC 19 March 2019
Temperature: 14.0°C (57°F)
Dewpoint: 11.0°C (52°F) [RH = 82%]
Pressure (altimeter): 29.85 inches Hg (1011.0 mb)
Winds: from the SSW (200 degrees) at 16 MPH (14 knots; 7.2 m/s)
Visibility: 6 or more miles (10+ km)
Ceiling: ceiling and visibility are OK
Clouds: unknown
Weather: no significant weather observed at this time

METAR text: ZSNB 192000Z 20005MPS CAVOK 13/10 Q1011 NOSIG
Conditions at: ZSNB (NINGBO/LISHE , CN) observed 2000 UTC 19 March 2019
Temperature: 13.0°C (55°F)
Dewpoint: 10.0°C (50°F) [RH = 82%]
Pressure (altimeter): 29.85 inches Hg (1011.0 mb)
Winds: from the SSW (200 degrees) at 12 MPH (10 knots; 5.1 m/s)
Visibility: 6 or more miles (10+ km)
Ceiling: ceiling and visibility are OK
Clouds: unknown
Weather: no significant weather observed at this time

METAR text: ZSNB 191900Z 20006MPS CAVOK 13/10 Q1012 NOSIG
Conditions at: ZSNB (NINGBO/LISHE , CN) observed 1900 UTC 19 March 2019
Temperature: 13.0°C (55°F)
Dewpoint: 10.0°C (50°F) [RH = 82%]
Pressure (altimeter): 29.88 inches Hg (1012.0 mb)
Winds: from the SSW (200 degrees) at 14 MPH (12 knots; 6.2 m/s)
Visibility: 6 or more miles (10+ km)
Ceiling: ceiling and visibility are OK
Clouds: unknown
Weather: no significant weather observed at this time

METAR text: ZSNB 191800Z 19005MPS CAVOK 13/10 Q1014 NOSIG
Conditions at: ZSNB (NINGBO/LISHE , CN) observed 1800 UTC 19 March 2019
Temperature: 13.0°C (55°F)
Dewpoint: 10.0°C (50°F) [RH = 82%]
Pressure (altimeter): 29.94 inches Hg (1014.0 mb)
Winds: from the S (190 degrees) at 12 MPH (10 knots; 5.1 m/s)
Visibility: 6 or more miles (10+ km)
Ceiling: ceiling and visibility are OK
Clouds: unknown
Weather: no significant weather observed at this time

METAR text: ZSNB 191700Z 16004MPS CAVOK 13/10 Q1015 NOSIG
Conditions at: ZSNB (NINGBO/LISHE , CN) observed 1700 UTC 19 March 2019
Temperature: 13.0°C (55°F)
Dewpoint: 10.0°C (50°F) [RH = 82%]
Pressure (altimeter): 29.97 inches Hg (1015.0 mb)
Winds: from the SSE (160 degrees) at 9 MPH (8 knots; 4.1 m/s)
Visibility: 6 or more miles (10+ km)
Ceiling: ceiling and visibility are OK
Clouds: unknown
Weather: no significant weather observed at this time

METAR text: ZSNB 191600Z 17006MPS CAVOK 13/09 Q1016 NOSIG
Conditions at: ZSNB (NINGBO/LISHE , CN) observed 1600 UTC 19 March 2019
Temperature: 13.0°C (55°F)
Dewpoint: 9.0°C (48°F) [RH = 77%]
Pressure (altimeter): 30.00 inches Hg (1016.0 mb)
Winds: from the S (170 degrees) at 14 MPH (12 knots; 6.2 m/s)
Visibility: 6 or more miles (10+ km)
Ceiling: ceiling and visibility are OK
Clouds: unknown
Weather: no significant weather observed at this time

METAR text: ZSNB 191500Z 16004MPS CAVOK 13/09 Q1016 NOSIG
Conditions at: ZSNB (NINGBO/LISHE , CN) observed 1500 UTC 19 March 2019
Temperature: 13.0°C (55°F)
Dewpoint: 9.0°C (48°F) [RH = 77%]
Pressure (altimeter): 30.00 inches Hg (1016.0 mb)
Winds: from the SSE (160 degrees) at 9 MPH (8 knots; 4.1 m/s)
Visibility: 6 or more miles (10+ km)
Ceiling: ceiling and visibility are OK
Clouds: unknown
Weather: no significant weather observed at this time

METAR text: ZSNB 191400Z 16006MPS CAVOK 13/10 Q1017 NOSIG
Conditions at: ZSNB (NINGBO/LISHE , CN) observed 1400 UTC 19 March 2019
Temperature: 13.0°C (55°F)
Dewpoint: 10.0°C (50°F) [RH = 82%]
Pressure (altimeter): 30.03 inches Hg (1017.0 mb)
Winds: from the SSE (160 degrees) at 14 MPH (12 knots; 6.2 m/s)
Visibility: 6 or more miles (10+ km)
Ceiling: ceiling and visibility are OK
Clouds: unknown
Weather: no significant weather observed at this time

METAR text: ZSNB 191300Z 16006MPS CAVOK 13/09 Q1017 NOSIG
Conditions at: ZSNB (NINGBO/LISHE , CN) observed 1300 UTC 19 March 2019
Temperature: 13.0°C (55°F)
Dewpoint: 9.0°C (48°F) [RH = 77%]
Pressure (altimeter): 30.03 inches Hg (1017.0 mb)
Winds: from the SSE (160 degrees) at 14 MPH (12 knots; 6.2 m/s)
Visibility: 6 or more miles (10+ km)
Ceiling: ceiling and visibility are OK
Clouds: unknown
Weather: no significant weather observed at this time

METAR text: ZSNB 191200Z 14005MPS 120V180 CAVOK 14/08 Q1016 NOSIG
Conditions at: ZSNB (NINGBO/LISHE , CN) observed 1200 UTC 19 March 2019
Temperature: 14.0°C (57°F)
Dewpoint: 8.0°C (46°F) [RH = 67%]
Pressure (altimeter): 30.00 inches Hg (1016.0 mb)
Winds: from the SE (140 degrees) at 12 MPH (10 knots; 5.1 m/s)
Visibility: 6 or more miles (10+ km)
Ceiling: ceiling and visibility are OK
Clouds: unknown
Weather: no significant weather observed at this time

METAR text: ZSNB 191100Z 12005MPS CAVOK 14/09 Q1015 NOSIG
Conditions at: ZSNB (NINGBO/LISHE , CN) observed 1100 UTC 19 March 2019
Temperature: 14.0°C (57°F)
Dewpoint: 9.0°C (48°F) [RH = 72%]
Pressure (altimeter): 29.97 inches Hg (1015.0 mb)
Winds: from the ESE (120 degrees) at 12 MPH (10 knots; 5.1 m/s)
Visibility: 6 or more miles (10+ km)
Ceiling: ceiling and visibility are OK
Clouds: unknown
Weather: no significant weather observed at this time

METAR text: ZSNB 191000Z 12006MPS CAVOK 16/08 Q1015 NOSIG
Conditions at: ZSNB (NINGBO/LISHE , CN) observed 1000 UTC 19 March 2019
Temperature: 16.0°C (61°F)
Dewpoint: 8.0°C (46°F) [RH = 59%]
Pressure (altimeter): 29.97 inches Hg (1015.0 mb)
Winds: from the ESE (120 degrees) at 14 MPH (12 knots; 6.2 m/s)
Visibility: 6 or more miles (10+ km)
Ceiling: ceiling and visibility are OK
Clouds: unknown
Weather: no significant weather observed at this time

METAR text: ZSNB 190900Z 12007MPS CAVOK 18/08 Q1015 NOSIG
Conditions at: ZSNB (NINGBO/LISHE , CN) observed 0900 UTC 19 March 2019
Temperature: 18.0°C (64°F)
Dewpoint: 8.0°C (46°F) [RH = 52%]
Pressure (altimeter): 29.97 inches Hg (1015.0 mb)
Winds: from the ESE (120 degrees) at 16 MPH (14 knots; 7.2 m/s)
Visibility: 6 or more miles (10+ km)
Ceiling: ceiling and visibility are OK
Clouds: unknown
Weather: no significant weather observed at this time

METAR text: ZSNB 190800Z 12005MPS 090V150 CAVOK 20/09 Q1015 NOSIG
Conditions at: ZSNB (NINGBO/LISHE , CN) observed 0800 UTC 19 March 2019
Temperature: 20.0°C (68°F)
Dewpoint: 9.0°C (48°F) [RH = 49%]
Pressure (altimeter): 29.97 inches Hg (1015.0 mb)
Winds: from the ESE (120 degrees) at 12 MPH (10 knots; 5.1 m/s)
Visibility: 6 or more miles (10+ km)
Ceiling: ceiling and visibility are OK
Clouds: unknown
Weather: no significant weather observed at this time

METAR text: ZSNB 190700Z 13004MPS 080V200 CAVOK 21/09 Q1016 NOSIG
Conditions at: ZSNB (NINGBO/LISHE , CN) observed 0700 UTC 19 March 2019
Temperature: 21.0°C (70°F)
Dewpoint: 9.0°C (48°F) [RH = 46%]
Pressure (altimeter): 30.00 inches Hg (1016.0 mb)
Winds: from the SE (130 degrees) at 9 MPH (8 knots; 4.1 m/s)
Visibility: 6 or more miles (10+ km)
Ceiling: ceiling and visibility are OK
Clouds: unknown
Weather: no significant weather observed at this time

METAR text: ZSNB 190600Z 15002MPS 090V260 CAVOK 20/10 Q1016 NOSIG
Conditions at: ZSNB (NINGBO/LISHE , CN) observed 0600 UTC 19 March 2019
Temperature: 20.0°C (68°F)
Dewpoint: 10.0°C (50°F) [RH = 53%]
Pressure (altimeter): 30.00 inches Hg (1016.0 mb)
Winds: from the SSE (150 degrees) at 5 MPH (4 knots; 2.1 m/s)
Visibility: 6 or more miles (10+ km)
Ceiling: ceiling and visibility are OK
Clouds: unknown
Weather: no significant weather observed at this time

METAR text: ZSNB 190500Z 18002MPS 080V220 CAVOK 20/08 Q1018 NOSIG
Conditions at: ZSNB (NINGBO/LISHE , CN) observed 0500 UTC 19 March 2019
Temperature: 20.0°C (68°F)
Dewpoint: 8.0°C (46°F) [RH = 46%]
Pressure (altimeter): 30.06 inches Hg (1018.0 mb)
Winds: from the S (180 degrees) at 5 MPH (4 knots; 2.1 m/s)
Visibility: 6 or more miles (10+ km)
Ceiling: ceiling and visibility are OK
Clouds: unknown
Weather: no significant weather observed at this time

METAR text: ZSNB 190400Z 18002MPS 110V240 8000 FEW026 19/09 Q1019 NOSIG
Conditions at: ZSNB (NINGBO/LISHE , CN) observed 0400 UTC 19 March 2019
Temperature: 19.0°C (66°F)
Dewpoint: 9.0°C (48°F) [RH = 52%]
Pressure (altimeter): 30.09 inches Hg (1019.0 mb)
Winds: from the S (180 degrees) at 5 MPH (4 knots; 2.1 m/s)
Visibility: 5 miles ( 8 km)
Ceiling: at least 12,000 feet AGL
Clouds: few clouds at 2600 feet AGL
Weather: no significant weather observed at this time

Forecast for: ZSNB (NINGBO/LISHE , CN)
Text: TAF ZSNB 200830Z 2012/2112 18005G10MPS 3500 -SHRA BR FEW006 BKN026 TX20/2012Z TN13/2111Z
Forecast period: 1200 to 1400 UTC 20 March 2019
Forecast type: FROM: standard forecast or significant change
Winds: from the S (180 degrees) at 12 MPH (10 knots; 5.1 m/s)
gusting to 22 MPH (19 knots; 9.8 m/s)
Visibility: 2.17 miles (3.49 km)
Ceiling: 2600 feet AGL
Clouds: few clouds at 600 feet AGL
broken clouds at 2600 feet AGL
Weather: -SHRA BR  (light rain showers, mist)
Text: BECMG 2014/2015 33004MPS
Forecast period: 1400 UTC 20 March 2019 to 0600 UTC 21 March 2019
Forecast type: BECOMING: Conditions expected to become as follows by 1500 UTC 20 March 2019
Winds: from the NNW (330 degrees) at 9 MPH (8 knots; 4.1 m/s)
Visibility: 2.17 miles (3.49 km)
Ceiling: 2600 feet AGL
Clouds: few clouds at 600 feet AGL
broken clouds at 2600 feet AGL
Weather: -SHRA BR  (light rain showers, mist)
Text: TEMPO 2014/2020 2000 TSRA BR FEW006 BKN020 FEW030CB
Forecast period: 1400 to 2000 UTC 20 March 2019
Forecast type: TEMPORARY: The following changes expected for less than half the time period
Visibility: 1.24 miles (2.00 km)
Ceiling: 2000 feet AGL
Clouds: few clouds at 600 feet AGL
broken clouds at 2000 feet AGL
few clouds at 3000 feet AGL
Weather: TSRA BR  (rain associated with thunderstorm(s), mist)
Text: TEMPO 2104/2110 2000 SHRA BR
Forecast period: 0400 to 1000 UTC 21 March 2019
Forecast type: TEMPORARY: The following changes expected for less than half the time period
Visibility: 1.24 miles (2.00 km)
Ceiling: unknown
Clouds: missing
Weather: SHRA BR  (rain showers, mist)
Text: BECMG 2106/2107 03006MPS
Forecast period: 0600 to 1200 UTC 21 March 2019
Forecast type: BECOMING: Conditions expected to become as follows by 0700 UTC 21 March 2019
Winds: from the NNE (30 degrees) at 14 MPH (12 knots; 6.2 m/s)
Visibility: 2.17 miles (3.49 km)
Ceiling: 2600 feet AGL
Clouds: few clouds at 600 feet AGL
broken clouds at 2600 feet AGL
Weather: -SHRA BR  (light rain showers, mist)